sensor_id;sensor_type;location;lat;lon;timestamp;temperature;humidity
4425;DHT22;2225;53.568;13.266;2022-10-16T00:01:29;19.00;94.30
4425;DHT22;2225;53.568;13.266;2022-10-16T00:03:58;19.00;94.30
4425;DHT22;2225;53.568;13.266;2022-10-16T00:06:27;19.00;94.30
4425;DHT22;2225;53.568;13.266;2022-10-16T00:08:58;19.00;94.30
4425;DHT22;2225;53.568;13.266;2022-10-16T00:11:30;19.00;94.40
4425;DHT22;2225;53.568;13.266;2022-10-16T00:14:01;19.00;94.40
4425;DHT22;2225;53.568;13.266;2022-10-16T00:16:29;18.90;94.30
4425;DHT22;2225;53.568;13.266;2022-10-16T00:18:57;18.90;94.40
4425;DHT22;2225;53.568;13.266;2022-10-16T00:21:26;18.90;94.50
4425;DHT22;2225;53.568;13.266;2022-10-16T00:24:00;18.90;94.60
4425;DHT22;2225;53.568;13.266;2022-10-16T00:26:31;18.90;94.60
4425;DHT22;2225;53.568;13.266;2022-10-16T00:28:59;18.90;94.70
4425;DHT22;2225;53.568;13.266;2022-10-16T00:31:26;18.90;94.60
4425;DHT22;2225;53.568;13.266;2022-10-16T00:33:54;18.90;94.60
4425;DHT22;2225;53.568;13.266;2022-10-16T00:36:22;18.90;94.60
4425;DHT22;2225;53.568;13.266;2022-10-16T00:38:52;18.90;94.60
4425;DHT22;2225;53.568;13.266;2022-10-16T00:41:22;18.90;94.60
4425;DHT22;2225;53.568;13.266;2022-10-16T00:43:55;18.90;94.60
4425;DHT22;2225;53.568;13.266;2022-10-16T00:46:35;18.90;94.60
4425;DHT22;2225;53.568;13.266;2022-10-16T00:49:09;18.90;94.90
4425;DHT22;2225;53.568;13.266;2022-10-16T00:51:40;18.90;94.60
4425;DHT22;2225;53.568;13.266;2022-10-16T00:54:12;18.90;94.60
4425;DHT22;2225;53.568;13.266;2022-10-16T00:56:41;18.90;94.60
4425;DHT22;2225;53.568;13.266;2022-10-16T00:59:15;18.90;94.60
4425;DHT22;2225;53.568;13.266;2022-10-16T01:01:46;18.90;94.70
4425;DHT22;2225;53.568;13.266;2022-10-16T01:04:13;18.90;94.60
4425;DHT22;2225;53.568;13.266;2022-10-16T01:06:46;18.90;94.60
4425;DHT22;2225;53.568;13.266;2022-10-16T01:09:23;18.90;94.70
4425;DHT22;2225;53.568;13.266;2022-10-16T01:12:05;18.90;94.80
4425;DHT22;2225;53.568;13.266;2022-10-16T01:14:48;18.90;94.90
4425;DHT22;2225;53.568;13.266;2022-10-16T01:17:37;18.90;94.80
4425;DHT22;2225;53.568;13.266;2022-10-16T01:29:03;18.90;95.20
4425;DHT22;2225;53.568;13.266;2022-10-16T01:31:37;18.90;95.10
4425;DHT22;2225;53.568;13.266;2022-10-16T01:34:13;18.90;95.10
4425;DHT22;2225;53.568;13.266;2022-10-16T01:37:01;18.90;95.10
4425;DHT22;2225;53.568;13.266;2022-10-16T01:39:34;18.90;95.20
4425;DHT22;2225;53.568;13.266;2022-10-16T01:42:11;19.00;95.00
4425;DHT22;2225;53.568;13.266;2022-10-16T01:44:41;19.00;95.10
4425;DHT22;2225;53.568;13.266;2022-10-16T01:47:10;19.00;95.00
4425;DHT22;2225;53.568;13.266;2022-10-16T01:49:41;19.00;95.00
4425;DHT22;2225;53.568;13.266;2022-10-16T01:52:16;18.90;95.10
4425;DHT22;2225;53.568;13.266;2022-10-16T01:54:47;18.90;95.10
4425;DHT22;2225;53.568;13.266;2022-10-16T01:57:16;18.90;95.20
4425;DHT22;2225;53.568;13.266;2022-10-16T01:59:47;18.90;95.20
4425;DHT22;2225;53.568;13.266;2022-10-16T02:02:17;18.90;95.20
4425;DHT22;2225;53.568;13.266;2022-10-16T02:05:28;18.80;95.20
4425;DHT22;2225;53.568;13.266;2022-10-16T02:07:57;18.80;95.60
4425;DHT22;2225;53.568;13.266;2022-10-16T02:10:28;18.80;95.40
4425;DHT22;2225;53.568;13.266;2022-10-16T02:15:41;18.80;95.50
4425;DHT22;2225;53.568;13.266;2022-10-16T02:18:09;18.80;95.40
4425;DHT22;2225;53.568;13.266;2022-10-16T02:20:55;18.80;95.60
4425;DHT22;2225;53.568;13.266;2022-10-16T02:23:32;18.70;95.80
4425;DHT22;2225;53.568;13.266;2022-10-16T02:26:09;18.70;95.70
4425;DHT22;2225;53.568;13.266;2022-10-16T02:28:44;18.70;95.70
4425;DHT22;2225;53.568;13.266;2022-10-16T02:31:15;18.70;95.70
4425;DHT22;2225;53.568;13.266;2022-10-16T02:33:45;18.70;95.60
4425;DHT22;2225;53.568;13.266;2022-10-16T02:36:13;18.70;95.60
4425;DHT22;2225;53.568;13.266;2022-10-16T02:38:40;18.70;95.60
4425;DHT22;2225;53.568;13.266;2022-10-16T02:41:07;18.70;95.60
4425;DHT22;2225;53.568;13.266;2022-10-16T02:43:35;18.70;95.70
4425;DHT22;2225;53.568;13.266;2022-10-16T02:46:02;18.70;95.70
4425;DHT22;2225;53.568;13.266;2022-10-16T02:48:29;18.70;95.70
4425;DHT22;2225;53.568;13.266;2022-10-16T02:50:56;18.60;95.80
4425;DHT22;2225;53.568;13.266;2022-10-16T02:53:23;18.60;95.80
4425;DHT22;2225;53.568;13.266;2022-10-16T02:55:50;18.70;95.80
4425;DHT22;2225;53.568;13.266;2022-10-16T02:58:17;18.60;95.90
4425;DHT22;2225;53.568;13.266;2022-10-16T03:00:44;18.60;96.00
4425;DHT22;2225;53.568;13.266;2022-10-16T03:03:11;18.50;95.90
4425;DHT22;2225;53.568;13.266;2022-10-16T03:05:38;18.50;95.80
4425;DHT22;2225;53.568;13.266;2022-10-16T03:08:05;18.50;95.80
4425;DHT22;2225;53.568;13.266;2022-10-16T03:10:32;18.50;95.90
4425;DHT22;2225;53.568;13.266;2022-10-16T03:12:59;18.50;95.90
4425;DHT22;2225;53.568;13.266;2022-10-16T03:15:25;18.50;95.80
4425;DHT22;2225;53.568;13.266;2022-10-16T03:17:57;18.50;95.80
4425;DHT22;2225;53.568;13.266;2022-10-16T03:20:25;18.40;95.80
4425;DHT22;2225;53.568;13.266;2022-10-16T03:22:52;18.50;95.80
4425;DHT22;2225;53.568;13.266;2022-10-16T03:25:19;18.40;95.70
4425;DHT22;2225;53.568;13.266;2022-10-16T03:27:46;18.40;95.70
4425;DHT22;2225;53.568;13.266;2022-10-16T03:30:13;18.40;95.60
4425;DHT22;2225;53.568;13.266;2022-10-16T03:32:40;18.40;95.60
4425;DHT22;2225;53.568;13.266;2022-10-16T03:35:07;18.30;95.60
4425;DHT22;2225;53.568;13.266;2022-10-16T03:37:34;18.30;95.60
4425;DHT22;2225;53.568;13.266;2022-10-16T03:40:02;18.30;95.70
4425;DHT22;2225;53.568;13.266;2022-10-16T03:42:29;18.20;95.70
4425;DHT22;2225;53.568;13.266;2022-10-16T03:44:56;18.20;95.80
4425;DHT22;2225;53.568;13.266;2022-10-16T03:47:23;18.30;95.90
4425;DHT22;2225;53.568;13.266;2022-10-16T03:49:51;18.20;95.90
4425;DHT22;2225;53.568;13.266;2022-10-16T03:52:18;18.20;96.00
4425;DHT22;2225;53.568;13.266;2022-10-16T03:54:49;18.10;96.00
4425;DHT22;2225;53.568;13.266;2022-10-16T03:57:17;18.10;96.10
4425;DHT22;2225;53.568;13.266;2022-10-16T03:59:43;18.10;96.20
4425;DHT22;2225;53.568;13.266;2022-10-16T04:02:10;18.10;96.10
4425;DHT22;2225;53.568;13.266;2022-10-16T04:04:37;18.00;96.10
4425;DHT22;2225;53.568;13.266;2022-10-16T04:07:04;18.10;96.10
4425;DHT22;2225;53.568;13.266;2022-10-16T04:09:31;18.00;96.00
4425;DHT22;2225;53.568;13.266;2022-10-16T04:11:58;18.00;96.10
4425;DHT22;2225;53.568;13.266;2022-10-16T04:14:25;18.00;96.10
4425;DHT22;2225;53.568;13.266;2022-10-16T04:16:52;18.00;96.10
4425;DHT22;2225;53.568;13.266;2022-10-16T04:19:19;18.00;96.20
4425;DHT22;2225;53.568;13.266;2022-10-16T04:21:46;18.00;96.20
4425;DHT22;2225;53.568;13.266;2022-10-16T04:24:13;17.90;96.30
4425;DHT22;2225;53.568;13.266;2022-10-16T04:26:39;17.90;96.30
4425;DHT22;2225;53.568;13.266;2022-10-16T04:29:06;17.90;96.30
4425;DHT22;2225;53.568;13.266;2022-10-16T04:31:33;17.90;96.30
4425;DHT22;2225;53.568;13.266;2022-10-16T04:34:00;17.90;96.30
4425;DHT22;2225;53.568;13.266;2022-10-16T04:36:27;17.90;96.40
4425;DHT22;2225;53.568;13.266;2022-10-16T04:38:54;17.90;96.30
4425;DHT22;2225;53.568;13.266;2022-10-16T04:41:22;17.90;96.30
4425;DHT22;2225;53.568;13.266;2022-10-16T04:43:48;17.90;96.30
4425;DHT22;2225;53.568;13.266;2022-10-16T04:46:15;17.90;96.30
4425;DHT22;2225;53.568;13.266;2022-10-16T04:48:42;17.90;96.30
4425;DHT22;2225;53.568;13.266;2022-10-16T04:51:09;17.80;96.30
4425;DHT22;2225;53.568;13.266;2022-10-16T04:53:37;17.80;96.20
4425;DHT22;2225;53.568;13.266;2022-10-16T04:56:04;17.80;96.20
4425;DHT22;2225;53.568;13.266;2022-10-16T04:58:31;17.70;96.20
4425;DHT22;2225;53.568;13.266;2022-10-16T05:00:58;17.70;96.20
4425;DHT22;2225;53.568;13.266;2022-10-16T05:03:24;17.70;96.20
4425;DHT22;2225;53.568;13.266;2022-10-16T05:05:51;17.70;96.20
4425;DHT22;2225;53.568;13.266;2022-10-16T05:08:18;17.60;96.20
4425;DHT22;2225;53.568;13.266;2022-10-16T05:10:45;17.60;96.10
4425;DHT22;2225;53.568;13.266;2022-10-16T05:13:12;17.60;96.10
4425;DHT22;2225;53.568;13.266;2022-10-16T05:15:39;17.60;96.10
4425;DHT22;2225;53.568;13.266;2022-10-16T05:18:06;17.60;96.10
4425;DHT22;2225;53.568;13.266;2022-10-16T05:20:33;17.50;96.10
4425;DHT22;2225;53.568;13.266;2022-10-16T05:23:00;17.50;96.20
4425;DHT22;2225;53.568;13.266;2022-10-16T05:25:27;17.50;96.20
4425;DHT22;2225;53.568;13.266;2022-10-16T05:27:54;17.40;96.50
4425;DHT22;2225;53.568;13.266;2022-10-16T05:30:21;17.40;96.20
4425;DHT22;2225;53.568;13.266;2022-10-16T05:32:49;17.40;96.30
4425;DHT22;2225;53.568;13.266;2022-10-16T05:35:18;17.40;96.40
4425;DHT22;2225;53.568;13.266;2022-10-16T05:37:45;17.40;96.40
4425;DHT22;2225;53.568;13.266;2022-10-16T05:40:13;17.40;96.50
4425;DHT22;2225;53.568;13.266;2022-10-16T05:42:41;17.30;96.50
4425;DHT22;2225;53.568;13.266;2022-10-16T05:45:09;17.30;96.40
4425;DHT22;2225;53.568;13.266;2022-10-16T05:47:38;17.30;96.50
4425;DHT22;2225;53.568;13.266;2022-10-16T05:50:05;17.30;96.50
4425;DHT22;2225;53.568;13.266;2022-10-16T05:52:32;17.30;96.50
4425;DHT22;2225;53.568;13.266;2022-10-16T05:54:59;17.30;96.50
4425;DHT22;2225;53.568;13.266;2022-10-16T05:57:26;17.30;96.60
4425;DHT22;2225;53.568;13.266;2022-10-16T05:59:53;17.30;96.50
4425;DHT22;2225;53.568;13.266;2022-10-16T06:02:20;17.30;96.50
4425;DHT22;2225;53.568;13.266;2022-10-16T06:04:47;17.30;96.60
4425;DHT22;2225;53.568;13.266;2022-10-16T06:07:14;17.30;96.60
4425;DHT22;2225;53.568;13.266;2022-10-16T06:09:41;17.30;96.60
4425;DHT22;2225;53.568;13.266;2022-10-16T06:12:08;17.30;96.50
4425;DHT22;2225;53.568;13.266;2022-10-16T06:14:35;17.30;96.60
4425;DHT22;2225;53.568;13.266;2022-10-16T06:17:02;17.30;96.50
4425;DHT22;2225;53.568;13.266;2022-10-16T06:19:29;17.30;96.50
4425;DHT22;2225;53.568;13.266;2022-10-16T06:21:55;17.40;96.50
4425;DHT22;2225;53.568;13.266;2022-10-16T06:24:25;17.40;96.50
4425;DHT22;2225;53.568;13.266;2022-10-16T06:26:52;17.40;96.40
4425;DHT22;2225;53.568;13.266;2022-10-16T06:29:18;17.40;96.40
4425;DHT22;2225;53.568;13.266;2022-10-16T06:31:45;17.40;96.30
4425;DHT22;2225;53.568;13.266;2022-10-16T06:34:12;17.40;96.30
4425;DHT22;2225;53.568;13.266;2022-10-16T06:36:39;17.50;96.30
4425;DHT22;2225;53.568;13.266;2022-10-16T06:39:07;17.50;96.30
4425;DHT22;2225;53.568;13.266;2022-10-16T06:41:34;17.50;96.20
4425;DHT22;2225;53.568;13.266;2022-10-16T06:44:14;17.50;96.10
4425;DHT22;2225;53.568;13.266;2022-10-16T06:46:41;17.50;96.10
4425;DHT22;2225;53.568;13.266;2022-10-16T06:49:07;17.50;96.10
4425;DHT22;2225;53.568;13.266;2022-10-16T06:51:34;17.60;96.10
4425;DHT22;2225;53.568;13.266;2022-10-16T06:54:08;17.60;96.40
4425;DHT22;2225;53.568;13.266;2022-10-16T06:56:35;17.60;96.00
4425;DHT22;2225;53.568;13.266;2022-10-16T06:59:02;17.60;96.00
4425;DHT22;2225;53.568;13.266;2022-10-16T07:01:30;17.60;96.00
4425;DHT22;2225;53.568;13.266;2022-10-16T07:03:57;17.70;96.00
4425;DHT22;2225;53.568;13.266;2022-10-16T07:06:25;17.70;96.00
4425;DHT22;2225;53.568;13.266;2022-10-16T07:08:53;17.80;96.00
4425;DHT22;2225;53.568;13.266;2022-10-16T07:11:21;17.80;96.00
4425;DHT22;2225;53.568;13.266;2022-10-16T07:13:50;17.80;96.00
4425;DHT22;2225;53.568;13.266;2022-10-16T07:16:24;17.90;95.90
4425;DHT22;2225;53.568;13.266;2022-10-16T07:18:54;17.90;95.90
4425;DHT22;2225;53.568;13.266;2022-10-16T07:21:31;18.00;95.80
4425;DHT22;2225;53.568;13.266;2022-10-16T07:24:03;18.00;95.70
4425;DHT22;2225;53.568;13.266;2022-10-16T07:26:34;18.00;95.60
4425;DHT22;2225;53.568;13.266;2022-10-16T07:29:02;18.10;95.50
4425;DHT22;2225;53.568;13.266;2022-10-16T07:31:30;18.10;95.50
4425;DHT22;2225;53.568;13.266;2022-10-16T07:33:59;18.10;95.40
4425;DHT22;2225;53.568;13.266;2022-10-16T07:36:26;18.20;95.30
4425;DHT22;2225;53.568;13.266;2022-10-16T07:38:54;18.20;95.30
4425;DHT22;2225;53.568;13.266;2022-10-16T07:41:26;18.20;95.20
4425;DHT22;2225;53.568;13.266;2022-10-16T07:43:54;18.20;95.20
4425;DHT22;2225;53.568;13.266;2022-10-16T07:46:22;18.20;95.20
4425;DHT22;2225;53.568;13.266;2022-10-16T07:48:49;18.30;95.10
4425;DHT22;2225;53.568;13.266;2022-10-16T07:51:21;18.30;95.00
4425;DHT22;2225;53.568;13.266;2022-10-16T07:53:50;18.40;95.00
4425;DHT22;2225;53.568;13.266;2022-10-16T07:56:18;18.40;94.80
4425;DHT22;2225;53.568;13.266;2022-10-16T07:58:46;18.40;94.70
4425;DHT22;2225;53.568;13.266;2022-10-16T08:01:15;18.40;94.60
4425;DHT22;2225;53.568;13.266;2022-10-16T08:03:44;18.40;94.60
4425;DHT22;2225;53.568;13.266;2022-10-16T08:06:12;18.40;94.50
4425;DHT22;2225;53.568;13.266;2022-10-16T08:08:39;18.40;94.40
4425;DHT22;2225;53.568;13.266;2022-10-16T08:11:06;18.50;94.40
4425;DHT22;2225;53.568;13.266;2022-10-16T08:13:33;18.50;94.30
4425;DHT22;2225;53.568;13.266;2022-10-16T08:16:01;18.50;94.20
4425;DHT22;2225;53.568;13.266;2022-10-16T08:18:30;18.50;94.30
4425;DHT22;2225;53.568;13.266;2022-10-16T08:20:58;18.50;94.20
4425;DHT22;2225;53.568;13.266;2022-10-16T08:23:27;18.60;94.20
4425;DHT22;2225;53.568;13.266;2022-10-16T08:25:56;18.60;94.20
4425;DHT22;2225;53.568;13.266;2022-10-16T08:28:27;18.60;94.20
4425;DHT22;2225;53.568;13.266;2022-10-16T08:30:54;18.70;94.10
4425;DHT22;2225;53.568;13.266;2022-10-16T08:33:23;18.70;94.00
4425;DHT22;2225;53.568;13.266;2022-10-16T08:35:51;18.70;94.00
4425;DHT22;2225;53.568;13.266;2022-10-16T08:38:20;18.70;94.00
4425;DHT22;2225;53.568;13.266;2022-10-16T08:40:47;18.80;94.00
4425;DHT22;2225;53.568;13.266;2022-10-16T08:43:35;18.80;93.90
4425;DHT22;2225;53.568;13.266;2022-10-16T08:48:54;18.80;93.80
4425;DHT22;2225;53.568;13.266;2022-10-16T08:51:28;18.80;93.80
4425;DHT22;2225;53.568;13.266;2022-10-16T08:53:58;18.80;93.70
4425;DHT22;2225;53.568;13.266;2022-10-16T08:56:38;18.80;93.70
4425;DHT22;2225;53.568;13.266;2022-10-16T08:59:09;18.80;93.80
4425;DHT22;2225;53.568;13.266;2022-10-16T09:01:43;18.90;93.90
4425;DHT22;2225;53.568;13.266;2022-10-16T09:07:47;19.00;93.60
4425;DHT22;2225;53.568;13.266;2022-10-16T09:10:40;19.00;93.50
4425;DHT22;2225;53.568;13.266;2022-10-16T09:13:28;19.10;93.50
4425;DHT22;2225;53.568;13.266;2022-10-16T09:22:15;19.20;93.30
4425;DHT22;2225;53.568;13.266;2022-10-16T09:24:43;19.30;93.30
4425;DHT22;2225;53.568;13.266;2022-10-16T09:27:11;19.40;93.20
4425;DHT22;2225;53.568;13.266;2022-10-16T09:29:39;19.50;92.90
4425;DHT22;2225;53.568;13.266;2022-10-16T09:32:13;19.50;92.80
4425;DHT22;2225;53.568;13.266;2022-10-16T09:34:45;19.60;92.60
4425;DHT22;2225;53.568;13.266;2022-10-16T09:37:17;19.60;92.50
4425;DHT22;2225;53.568;13.266;2022-10-16T09:39:53;19.70;92.50
4425;DHT22;2225;53.568;13.266;2022-10-16T09:42:24;19.70;92.30
4425;DHT22;2225;53.568;13.266;2022-10-16T09:44:59;19.80;92.40
4425;DHT22;2225;53.568;13.266;2022-10-16T09:47:28;19.90;92.10
4425;DHT22;2225;53.568;13.266;2022-10-16T09:50:03;20.00;92.20
4425;DHT22;2225;53.568;13.266;2022-10-16T09:52:33;20.20;91.70
4425;DHT22;2225;53.568;13.266;2022-10-16T09:55:09;20.20;91.20
4425;DHT22;2225;53.568;13.266;2022-10-16T09:57:53;20.30;91.40
4425;DHT22;2225;53.568;13.266;2022-10-16T10:00:23;20.40;90.50
4425;DHT22;2225;53.568;13.266;2022-10-16T10:02:50;20.50;90.70
4425;DHT22;2225;53.568;13.266;2022-10-16T10:05:28;20.50;90.40
4425;DHT22;2225;53.568;13.266;2022-10-16T10:07:58;20.60;89.90
4425;DHT22;2225;53.568;13.266;2022-10-16T10:10:31;20.60;90.00
4425;DHT22;2225;53.568;13.266;2022-10-16T10:12:59;20.70;90.40
4425;DHT22;2225;53.568;13.266;2022-10-16T10:15:29;20.80;90.20
4425;DHT22;2225;53.568;13.266;2022-10-16T10:18:00;20.90;89.60
4425;DHT22;2225;53.568;13.266;2022-10-16T10:20:34;21.00;90.10
4425;DHT22;2225;53.568;13.266;2022-10-16T10:23:24;21.00;88.60
4425;DHT22;2225;53.568;13.266;2022-10-16T10:28:59;21.20;88.80
4425;DHT22;2225;53.568;13.266;2022-10-16T10:40:39;21.60;85.70
4425;DHT22;2225;53.568;13.266;2022-10-16T10:52:52;22.00;84.10
4425;DHT22;2225;53.568;13.266;2022-10-16T10:55:46;22.10;83.60
4425;DHT22;2225;53.568;13.266;2022-10-16T11:07:53;22.40;82.50
4425;DHT22;2225;53.568;13.266;2022-10-16T11:10:47;22.40;79.40
4425;DHT22;2225;53.568;13.266;2022-10-16T11:13:42;22.40;78.10
4425;DHT22;2225;53.568;13.266;2022-10-16T11:16:20;22.40;78.50
4425;DHT22;2225;53.568;13.266;2022-10-16T11:19:14;22.50;78.20
4425;DHT22;2225;53.568;13.266;2022-10-16T11:21:51;22.50;77.00
4425;DHT22;2225;53.568;13.266;2022-10-16T11:24:24;22.50;78.10
4425;DHT22;2225;53.568;13.266;2022-10-16T11:27:08;22.60;78.10
4425;DHT22;2225;53.568;13.266;2022-10-16T11:30:00;22.60;77.30
4425;DHT22;2225;53.568;13.266;2022-10-16T11:32:33;22.70;75.00
4425;DHT22;2225;53.568;13.266;2022-10-16T11:35:19;22.70;75.70
4425;DHT22;2225;53.568;13.266;2022-10-16T11:37:53;22.80;74.70
4425;DHT22;2225;53.568;13.266;2022-10-16T11:40:32;22.80;75.10
4425;DHT22;2225;53.568;13.266;2022-10-16T11:43:12;22.90;76.30
4425;DHT22;2225;53.568;13.266;2022-10-16T11:45:49;23.00;75.00
4425;DHT22;2225;53.568;13.266;2022-10-16T11:48:32;22.90;74.70
4425;DHT22;2225;53.568;13.266;2022-10-16T11:51:14;23.00;74.90
4425;DHT22;2225;53.568;13.266;2022-10-16T11:53:56;22.90;74.50
4425;DHT22;2225;53.568;13.266;2022-10-16T11:56:26;22.90;75.10
4425;DHT22;2225;53.568;13.266;2022-10-16T11:59:02;22.90;75.60
4425;DHT22;2225;53.568;13.266;2022-10-16T12:01:44;23.00;75.30
4425;DHT22;2225;53.568;13.266;2022-10-16T12:04:34;23.00;75.00
4425;DHT22;2225;53.568;13.266;2022-10-16T12:07:32;23.10;74.70
4425;DHT22;2225;53.568;13.266;2022-10-16T12:10:26;23.20;74.20
4425;DHT22;2225;53.568;13.266;2022-10-16T12:12:54;23.20;74.80
4425;DHT22;2225;53.568;13.266;2022-10-16T12:15:30;23.20;75.30
4425;DHT22;2225;53.568;13.266;2022-10-16T12:18:24;23.20;74.30
4425;DHT22;2225;53.568;13.266;2022-10-16T12:20:56;23.20;74.70
4425;DHT22;2225;53.568;13.266;2022-10-16T12:23:25;23.10;74.70
4425;DHT22;2225;53.568;13.266;2022-10-16T12:25:58;23.10;75.10
4425;DHT22;2225;53.568;13.266;2022-10-16T12:28:30;23.10;75.20
4425;DHT22;2225;53.568;13.266;2022-10-16T12:31:05;23.10;75.00
4425;DHT22;2225;53.568;13.266;2022-10-16T12:33:38;23.10;75.70
4425;DHT22;2225;53.568;13.266;2022-10-16T12:36:14;23.10;76.40
4425;DHT22;2225;53.568;13.266;2022-10-16T12:38:50;23.20;75.30
4425;DHT22;2225;53.568;13.266;2022-10-16T12:41:29;23.20;75.90
4425;DHT22;2225;53.568;13.266;2022-10-16T12:44:01;23.20;75.60
4425;DHT22;2225;53.568;13.266;2022-10-16T12:51:40;23.10;73.40
4425;DHT22;2225;53.568;13.266;2022-10-16T12:54:22;23.10;73.90
4425;DHT22;2225;53.568;13.266;2022-10-16T13:03:17;23.10;73.90
4425;DHT22;2225;53.568;13.266;2022-10-16T13:12:17;23.10;73.00
4425;DHT22;2225;53.568;13.266;2022-10-16T13:15:00;23.10;71.70
4425;DHT22;2225;53.568;13.266;2022-10-16T13:17:43;23.20;72.50
4425;DHT22;2225;53.568;13.266;2022-10-16T13:20:28;23.10;72.10
4425;DHT22;2225;53.568;13.266;2022-10-16T13:25:53;23.20;72.80
4425;DHT22;2225;53.568;13.266;2022-10-16T13:28:30;23.30;72.70
4425;DHT22;2225;53.568;13.266;2022-10-16T13:31:00;23.30;72.20
4425;DHT22;2225;53.568;13.266;2022-10-16T13:33:41;23.20;72.80
4425;DHT22;2225;53.568;13.266;2022-10-16T13:36:25;23.30;72.60
4425;DHT22;2225;53.568;13.266;2022-10-16T13:39:09;23.30;73.20
4425;DHT22;2225;53.568;13.266;2022-10-16T13:41:39;23.30;73.50
4425;DHT22;2225;53.568;13.266;2022-10-16T13:44:19;23.30;73.50
4425;DHT22;2225;53.568;13.266;2022-10-16T13:46:59;23.40;73.70
4425;DHT22;2225;53.568;13.266;2022-10-16T13:49:27;23.40;72.60
4425;DHT22;2225;53.568;13.266;2022-10-16T13:51:58;23.40;72.50
4425;DHT22;2225;53.568;13.266;2022-10-16T13:54:27;23.40;72.20
4425;DHT22;2225;53.568;13.266;2022-10-16T13:56:55;23.30;72.70
4425;DHT22;2225;53.568;13.266;2022-10-16T13:59:36;23.40;73.60
4425;DHT22;2225;53.568;13.266;2022-10-16T14:05:02;23.40;73.50
4425;DHT22;2225;53.568;13.266;2022-10-16T14:07:32;23.30;73.80
4425;DHT22;2225;53.568;13.266;2022-10-16T14:10:06;23.40;73.90
4425;DHT22;2225;53.568;13.266;2022-10-16T14:12:34;23.30;73.70
4425;DHT22;2225;53.568;13.266;2022-10-16T14:15:02;23.30;73.90
4425;DHT22;2225;53.568;13.266;2022-10-16T14:17:34;23.30;73.20
4425;DHT22;2225;53.568;13.266;2022-10-16T14:20:05;23.20;71.90
4425;DHT22;2225;53.568;13.266;2022-10-16T14:22:36;23.20;72.20
4425;DHT22;2225;53.568;13.266;2022-10-16T14:25:26;23.20;72.70
4425;DHT22;2225;53.568;13.266;2022-10-16T14:28:14;23.20;72.40
4425;DHT22;2225;53.568;13.266;2022-10-16T14:30:55;23.20;72.80
4425;DHT22;2225;53.568;13.266;2022-10-16T14:33:32;23.20;72.60
4425;DHT22;2225;53.568;13.266;2022-10-16T14:36:13;23.20;71.90
4425;DHT22;2225;53.568;13.266;2022-10-16T14:38:54;23.20;72.00
4425;DHT22;2225;53.568;13.266;2022-10-16T14:41:24;23.10;72.10
4425;DHT22;2225;53.568;13.266;2022-10-16T14:43:54;23.10;71.70
4425;DHT22;2225;53.568;13.266;2022-10-16T14:46:28;23.00;71.80
4425;DHT22;2225;53.568;13.266;2022-10-16T14:49:05;23.00;72.10
4425;DHT22;2225;53.568;13.266;2022-10-16T14:51:42;23.00;72.20
4425;DHT22;2225;53.568;13.266;2022-10-16T14:54:16;23.00;72.50
4425;DHT22;2225;53.568;13.266;2022-10-16T14:56:53;22.90;72.70
4425;DHT22;2225;53.568;13.266;2022-10-16T14:59:33;22.90;73.00
4425;DHT22;2225;53.568;13.266;2022-10-16T15:02:18;22.90;73.10
4425;DHT22;2225;53.568;13.266;2022-10-16T15:04:54;22.80;72.70
4425;DHT22;2225;53.568;13.266;2022-10-16T15:07:21;22.80;73.10
4425;DHT22;2225;53.568;13.266;2022-10-16T15:09:49;22.80;73.40
4425;DHT22;2225;53.568;13.266;2022-10-16T15:12:16;22.70;72.80
4425;DHT22;2225;53.568;13.266;2022-10-16T15:14:43;22.70;72.90
4425;DHT22;2225;53.568;13.266;2022-10-16T15:17:11;22.70;73.10
4425;DHT22;2225;53.568;13.266;2022-10-16T15:19:40;22.60;73.10
4425;DHT22;2225;53.568;13.266;2022-10-16T15:22:10;22.60;73.30
4425;DHT22;2225;53.568;13.266;2022-10-16T15:24:38;22.60;73.60
4425;DHT22;2225;53.568;13.266;2022-10-16T15:27:05;22.50;73.50
4425;DHT22;2225;53.568;13.266;2022-10-16T15:29:32;22.50;73.70
4425;DHT22;2225;53.568;13.266;2022-10-16T15:31:59;22.50;74.10
4425;DHT22;2225;53.568;13.266;2022-10-16T15:34:26;22.40;74.10
4425;DHT22;2225;53.568;13.266;2022-10-16T15:36:53;22.40;74.00
4425;DHT22;2225;53.568;13.266;2022-10-16T15:39:21;22.40;74.20
4425;DHT22;2225;53.568;13.266;2022-10-16T15:41:48;22.30;74.00
4425;DHT22;2225;53.568;13.266;2022-10-16T15:44:18;22.30;74.10
4425;DHT22;2225;53.568;13.266;2022-10-16T15:46:45;22.20;74.20
4425;DHT22;2225;53.568;13.266;2022-10-16T15:49:12;22.20;74.40
4425;DHT22;2225;53.568;13.266;2022-10-16T15:51:41;22.20;74.50
4425;DHT22;2225;53.568;13.266;2022-10-16T15:54:08;22.20;74.80
4425;DHT22;2225;53.568;13.266;2022-10-16T15:56:35;22.10;74.80
4425;DHT22;2225;53.568;13.266;2022-10-16T15:59:04;22.10;75.00
4425;DHT22;2225;53.568;13.266;2022-10-16T16:01:33;22.10;75.10
4425;DHT22;2225;53.568;13.266;2022-10-16T16:04:00;22.00;75.20
4425;DHT22;2225;53.568;13.266;2022-10-16T16:06:45;22.00;75.30
4425;DHT22;2225;53.568;13.266;2022-10-16T16:09:13;22.00;75.20
4425;DHT22;2225;53.568;13.266;2022-10-16T16:11:41;21.90;75.30
4425;DHT22;2225;53.568;13.266;2022-10-16T16:14:12;21.90;75.30
4425;DHT22;2225;53.568;13.266;2022-10-16T16:16:40;21.80;75.30
4425;DHT22;2225;53.568;13.266;2022-10-16T16:19:07;21.80;75.40
4425;DHT22;2225;53.568;13.266;2022-10-16T16:21:37;21.70;75.60
4425;DHT22;2225;53.568;13.266;2022-10-16T16:24:04;21.70;75.70
4425;DHT22;2225;53.568;13.266;2022-10-16T16:26:35;21.60;75.80
4425;DHT22;2225;53.568;13.266;2022-10-16T16:29:06;21.50;76.10
4425;DHT22;2225;53.568;13.266;2022-10-16T16:31:33;21.50;76.30
4425;DHT22;2225;53.568;13.266;2022-10-16T16:34:01;21.50;76.30
4425;DHT22;2225;53.568;13.266;2022-10-16T16:36:28;21.50;76.40
4425;DHT22;2225;53.568;13.266;2022-10-16T16:38:56;21.40;76.50
4425;DHT22;2225;53.568;13.266;2022-10-16T16:41:25;21.40;76.60
4425;DHT22;2225;53.568;13.266;2022-10-16T16:43:54;21.40;76.90
4425;DHT22;2225;53.568;13.266;2022-10-16T16:46:22;21.30;77.00
4425;DHT22;2225;53.568;13.266;2022-10-16T16:48:49;21.20;77.20
4425;DHT22;2225;53.568;13.266;2022-10-16T16:51:17;21.20;77.40
4425;DHT22;2225;53.568;13.266;2022-10-16T16:53:48;21.10;77.70
4425;DHT22;2225;53.568;13.266;2022-10-16T16:56:16;21.10;78.10
4425;DHT22;2225;53.568;13.266;2022-10-16T16:58:48;21.00;78.30
4425;DHT22;2225;53.568;13.266;2022-10-16T17:01:16;20.90;78.70
4425;DHT22;2225;53.568;13.266;2022-10-16T17:03:48;20.90;78.90
4425;DHT22;2225;53.568;13.266;2022-10-16T17:06:18;20.80;79.10
4425;DHT22;2225;53.568;13.266;2022-10-16T17:08:47;20.70;79.30
4425;DHT22;2225;53.568;13.266;2022-10-16T17:11:24;20.70;79.70
4425;DHT22;2225;53.568;13.266;2022-10-16T17:13:54;20.60;80.40
4425;DHT22;2225;53.568;13.266;2022-10-16T17:16:25;20.50;80.30
4425;DHT22;2225;53.568;13.266;2022-10-16T17:18:54;20.40;80.40
4425;DHT22;2225;53.568;13.266;2022-10-16T17:21:21;20.40;80.60
4425;DHT22;2225;53.568;13.266;2022-10-16T17:23:50;20.30;80.90
4425;DHT22;2225;53.568;13.266;2022-10-16T17:26:18;20.20;81.20
4425;DHT22;2225;53.568;13.266;2022-10-16T17:28:45;20.20;81.30
4425;DHT22;2225;53.568;13.266;2022-10-16T17:31:15;20.10;81.50